Time;durP1;ratioP1;P1;durP2;ratioP2;P2;SDS_P1;SDS_P2;PMS_P1;PMS_P2;Temp;Humidity;BMP_temperature;BMP_pressure;BME280_temperature;BME280_humidity;BME280_pressure;Samples;Min_cycle;Max_cycle;Signal;HPM_P1;HPM_P2
2022/12/21 00:01:38;;;;;;;65.82;29.58;;;8.80;99.90;;;;;;5037414;28;20041;-36
2022/12/21 00:04:05;;;;;;;67.18;27.40;;;8.80;99.90;;;;;;5044538;28;20091;-40
2022/12/21 00:06:33;;;;;;;72.88;29.10;;;8.80;99.90;;;;;;5030815;28;20044;-40
2022/12/21 00:09:01;;;;;;;66.82;28.45;;;8.70;99.90;;;;;;5043667;28;20040;-41
2022/12/21 00:11:29;;;;;;;67.40;30.73;;;8.80;99.90;;;;;;5041726;28;20465;-41
2022/12/21 00:13:57;;;;;;;71.22;31.17;;;8.70;99.90;;;;;;5033948;28;20043;-41
2022/12/21 00:16:26;;;;;;;64.68;28.20;;;8.70;99.90;;;;;;5035042;28;20044;-40
2022/12/21 00:18:52;;;;;;;73.38;28.90;;;8.70;99.90;;;;;;5052605;28;20051;-40
2022/12/21 00:21:23;;;;;;;70.55;28.65;;;8.70;99.90;;;;;;5027673;28;20552;-39
2022/12/21 00:23:52;;;;;;;72.15;31.52;;;8.70;99.90;;;;;;5038834;28;20143;-38
2022/12/21 00:26:23;;;;;;;73.47;30.10;;;8.70;99.90;;;;;;5053942;28;20037;-38
2022/12/21 00:28:51;;;;;;;88.93;34.40;;;8.60;99.90;;;;;;5033902;28;20461;-38
2022/12/21 00:31:20;;;;;;;75.53;31.17;;;8.60;99.90;;;;;;5037949;28;20053;-38
2022/12/21 00:33:46;;;;;;;72.45;29.13;;;8.60;99.90;;;;;;5038588;28;20033;-38
2022/12/21 00:36:14;;;;;;;77.57;29.83;;;8.60;99.90;;;;;;5035126;28;20124;-38
2022/12/21 00:38:41;;;;;;;72.72;31.10;;;8.60;99.90;;;;;;5048612;28;20124;-38
2022/12/21 00:41:10;;;;;;;84.45;33.83;;;8.60;99.90;;;;;;5033597;28;20073;-38
2022/12/21 00:43:37;;;;;;;81.43;34.25;;;8.60;99.90;;;;;;5051314;28;20433;-38
2022/12/21 00:46:04;;;;;;;75.55;30.17;;;8.50;99.90;;;;;;5028990;28;20034;-38
2022/12/21 00:48:31;;;;;;;79.00;30.48;;;8.50;99.90;;;;;;5041797;28;20444;-38
2022/12/21 00:51:08;;;;;;;75.40;29.25;;;8.50;99.90;;;;;;5041563;28;20120;-38
2022/12/21 00:53:34;;;;;;;82.93;29.50;;;8.50;99.90;;;;;;5017955;28;20048;-38
2022/12/21 00:56:01;;;;;;;83.07;30.30;;;8.50;99.90;;;;;;5046822;28;20048;-38
2022/12/21 00:58:29;;;;;;;83.38;30.25;;;8.50;99.90;;;;;;5048668;28;20048;-38
2022/12/21 01:00:56;;;;;;;77.60;30.27;;;8.50;99.90;;;;;;5038265;28;20044;-38
2022/12/21 01:03:23;;;;;;;74.25;29.75;;;8.50;99.90;;;;;;5054612;28;20037;-38
2022/12/21 01:05:50;;;;;;;75.88;28.42;;;8.50;99.90;;;;;;5045361;28;20037;-38
2022/12/21 01:08:18;;;;;;;83.85;29.67;;;8.50;99.90;;;;;;5035026;28;20356;-38
2022/12/21 01:10:44;;;;;;;89.95;31.38;;;8.50;99.90;;;;;;5027564;28;20493;-38
2022/12/21 01:13:11;;;;;;;89.90;30.15;;;8.50;99.90;;;;;;5052184;28;20045;-38
2022/12/21 01:15:46;;;;;;;88.35;28.90;;;8.50;99.90;;;;;;5028881;28;20116;-38
2022/12/21 01:18:14;;;;;;;84.90;28.52;;;8.50;99.90;;;;;;5031625;28;20128;-38
2022/12/21 01:20:49;;;;;;;81.82;28.08;;;8.50;99.90;;;;;;5036139;28;20398;-38
2022/12/21 01:23:15;;;;;;;84.22;30.13;;;8.50;99.90;;;;;;5033956;28;20045;-38
2022/12/21 01:25:45;;;;;;;86.18;29.65;;;8.50;99.90;;;;;;5030269;28;20029;-38
2022/12/21 01:28:11;;;;;;;82.32;29.65;;;8.50;99.90;;;;;;5035011;28;20575;-38
2022/12/21 01:30:38;;;;;;;76.03;29.02;;;8.50;99.90;;;;;;5031706;28;20065;-38
2022/12/21 01:33:05;;;;;;;77.40;29.15;;;8.40;99.90;;;;;;5051229;28;20040;-38
2022/12/21 01:35:31;;;;;;;75.10;28.17;;;8.40;99.90;;;;;;5035355;28;20490;-38
2022/12/21 01:37:57;;;;;;;78.05;28.42;;;8.40;99.90;;;;;;5037898;28;20040;-38
2022/12/21 01:40:23;;;;;;;67.07;25.40;;;8.40;99.90;;;;;;5056272;28;20029;-38
2022/12/21 01:42:48;;;;;;;64.70;24.75;;;8.40;99.90;;;;;;5031878;28;20067;-38
2022/12/21 01:45:18;;;;;;;72.13;26.05;;;8.40;99.90;;;;;;5034893;28;20045;-38
2022/12/21 01:47:51;;;;;;;63.33;26.40;;;8.40;99.90;;;;;;5029136;28;20506;-38
2022/12/21 01:50:42;;;;;;;74.28;26.10;;;8.40;99.90;;;;;;5033623;28;20048;-38
2022/12/21 01:53:36;;;;;;;70.25;25.00;;;8.40;99.90;;;;;;5053184;28;20048;-38
2022/12/21 01:56:05;;;;;;;68.47;25.17;;;8.30;99.90;;;;;;5046497;28;20111;-38
2022/12/21 01:58:32;;;;;;;76.90;26.20;;;8.30;99.90;;;;;;5035674;28;20047;-38
2022/12/21 02:00:59;;;;;;;67.40;24.30;;;8.30;99.90;;;;;;5022449;28;20045;-38
2022/12/21 02:03:40;;;;;;;73.25;24.80;;;8.30;99.90;;;;;;5028670;28;20032;-38
2022/12/21 02:06:34;;;;;;;67.45;25.25;;;8.30;99.90;;;;;;5034542;28;20509;-38
2022/12/21 02:09:01;;;;;;;58.43;21.73;;;8.30;99.90;;;;;;5032127;28;20119;-38
2022/12/21 02:11:27;;;;;;;64.32;22.67;;;8.30;99.90;;;;;;5034390;28;20037;-38
2022/12/21 02:13:53;;;;;;;58.85;22.63;;;8.20;99.90;;;;;;5040080;28;20041;-38
2022/12/21 02:16:40;;;;;;;61.22;21.38;;;8.20;99.90;;;;;;5021224;28;20108;-38
2022/12/21 02:19:24;;;;;;;58.53;21.75;;;8.20;99.90;;;;;;5009930;28;20516;-38
2022/12/21 02:22:01;;;;;;;57.30;20.58;;;8.20;99.90;;;;;;5031081;28;20041;-38
2022/12/21 02:25:06;;;;;;;56.78;20.63;;;8.20;99.90;;;;;;5033823;28;20045;-38
2022/12/21 02:27:38;;;;;;;61.28;22.63;;;8.20;99.90;;;;;;5045403;28;20457;-38
2022/12/21 02:30:17;;;;;;;64.70;24.52;;;8.20;99.90;;;;;;5043788;28;20064;-39
2022/12/21 02:33:07;;;;;;;62.13;22.52;;;8.20;99.90;;;;;;5049007;28;20057;-37
2022/12/21 02:35:45;;;;;;;63.83;22.65;;;8.20;99.90;;;;;;5044961;28;20496;-37
2022/12/21 02:38:26;;;;;;;67.05;23.10;;;8.20;99.90;;;;;;5026661;28;20727;-37
2022/12/21 02:41:07;;;;;;;67.65;22.73;;;8.20;99.90;;;;;;5029159;28;20048;-37
2022/12/21 02:44:14;;;;;;;66.18;22.80;;;8.20;99.90;;;;;;5048892;28;20055;-37
2022/12/21 02:47:08;;;;;;;59.83;22.13;;;8.10;99.90;;;;;;5038623;28;20479;-37
2022/12/21 02:49:43;;;;;;;68.82;23.02;;;8.10;99.90;;;;;;5045300;28;20037;-37
2022/12/21 02:52:15;;;;;;;70.38;24.52;;;8.20;99.90;;;;;;5033526;28;20029;-37
2022/12/21 02:54:41;;;;;;;78.43;24.75;;;8.10;99.90;;;;;;5035398;28;20033;-37
2022/12/21 02:57:07;;;;;;;71.72;25.73;;;8.10;99.90;;;;;;5028732;28;20097;-37
2022/12/21 03:00:00;;;;;;;88.55;27.45;;;8.10;99.90;;;;;;5041791;28;20630;-40
2022/12/21 03:02:38;;;;;;;85.15;28.02;;;8.10;99.90;;;;;;5040632;28;20037;-38
2022/12/21 03:05:24;;;;;;;83.63;27.50;;;8.10;99.90;;;;;;5047902;28;20117;-38
2022/12/21 03:08:43;;;;;;;81.03;27.23;;;8.10;99.90;;;;;;5031353;28;20091;-39
2022/12/21 03:11:09;;;;;;;77.18;25.25;;;8.10;99.90;;;;;;5010872;28;20049;-39
2022/12/21 03:13:43;;;;;;;66.93;24.83;;;8.10;99.90;;;;;;5033794;28;20449;-39
2022/12/21 03:16:21;;;;;;;73.47;23.40;;;8.00;99.90;;;;;;5050355;28;20048;-39
2022/12/21 03:19:02;;;;;;;75.75;23.90;;;8.00;99.90;;;;;;5033249;28;20065;-39
2022/12/21 03:21:37;;;;;;;76.32;24.90;;;8.00;99.90;;;;;;5031301;28;20043;-39
2022/12/21 03:24:29;;;;;;;86.68;25.95;;;8.00;99.90;;;;;;5031346;28;20451;-39
2022/12/21 03:27:10;;;;;;;74.32;24.85;;;8.00;99.90;;;;;;5051275;28;20127;-42
2022/12/21 03:29:44;;;;;;;84.13;25.23;;;7.90;99.90;;;;;;5025015;28;20030;-39
2022/12/21 03:32:12;;;;;;;;;;;7.90;99.90;;;;;;5039749;28;20087;-39
2022/12/21 03:34:46;;;;;;;87.03;26.02;;;7.90;99.90;;;;;;5035869;28;19931;-39
2022/12/21 03:37:23;;;;;;;92.38;25.45;;;7.90;99.90;;;;;;5046097;28;20068;-40
2022/12/21 03:39:57;;;;;;;90.90;26.58;;;7.90;99.90;;;;;;5048225;28;20041;-40
2022/12/21 03:42:31;;;;;;;94.03;28.67;;;7.90;99.90;;;;;;5026819;28;20045;-39
2022/12/21 03:45:00;;;;;;;;;;;7.90;99.90;;;;;;5042990;28;20037;-39
2022/12/21 03:47:31;;;;;;;110.88;30.27;;;7.90;99.90;;;;;;5030290;28;20399;-39
2022/12/21 03:50:01;;;;;;;146.52;47.92;;;7.90;99.90;;;;;;5036281;28;20042;-39
2022/12/21 03:52:44;;;;;;;205.15;76.30;;;7.90;99.90;;;;;;5040287;28;20061;-39
2022/12/21 03:55:20;;;;;;;106.63;39.50;;;7.80;99.90;;;;;;5040034;28;20095;-39
2022/12/21 03:57:47;;;;;;;116.50;43.80;;;7.90;99.90;;;;;;5037232;28;20047;-39
2022/12/21 04:00:13;;;;;;;117.68;34.42;;;7.90;99.90;;;;;;5032723;28;20137;-40
2022/12/21 04:03:02;;;;;;;104.95;30.23;;;7.80;99.90;;;;;;5029216;28;20047;-39
2022/12/21 04:05:33;;;;;;;106.43;36.35;;;7.90;99.90;;;;;;5036128;28;20493;-39
2022/12/21 04:08:00;;;;;;;113.07;33.33;;;7.90;99.90;;;;;;5027045;28;20033;-40
2022/12/21 04:10:27;;;;;;;95.30;30.83;;;7.90;99.90;;;;;;5048754;28;20040;-40
2022/12/21 04:12:52;;;;;;;106.78;29.90;;;7.90;99.90;;;;;;5025151;28;20037;-39
2022/12/21 04:15:23;;;;;;;126.00;32.42;;;7.80;99.90;;;;;;5053174;28;20037;-39
2022/12/21 04:17:51;;;;;;;121.28;33.00;;;7.80;99.90;;;;;;5037446;28;20033;-39
2022/12/21 04:20:23;;;;;;;108.28;33.47;;;7.80;99.90;;;;;;5036189;28;20037;-39
2022/12/21 04:28:27;;;;;;;112.75;34.53;;;7.80;99.90;;;;;;5054503;28;20124;-40
2022/12/21 04:30:53;;;;;;;143.60;41.95;;;7.80;99.90;;;;;;5038481;28;20033;-36
2022/12/21 04:33:20;;;;;;;109.85;34.33;;;7.80;99.90;;;;;;5037449;28;20508;-36
2022/12/21 04:38:34;;;;;;;145.60;37.58;;;7.80;99.90;;;;;;5054586;28;20041;-36
2022/12/21 04:41:00;;;;;;;101.05;31.92;;;7.90;99.90;;;;;;5054699;28;20135;-36
2022/12/21 04:43:26;;;;;;;123.15;36.15;;;7.90;99.90;;;;;;5036989;28;20037;-36
2022/12/21 04:46:03;;;;;;;143.15;40.53;;;7.90;99.90;;;;;;5036585;28;20041;-35
2022/12/21 04:48:29;;;;;;;163.27;44.67;;;7.90;99.90;;;;;;5054683;28;20041;-36
2022/12/21 04:50:55;;;;;;;134.73;40.60;;;7.90;99.90;;;;;;5036938;28;20398;-36
2022/12/21 04:53:22;;;;;;;172.60;39.50;;;7.90;99.90;;;;;;5036546;28;20045;-36
2022/12/21 04:55:48;;;;;;;138.85;37.63;;;7.90;99.90;;;;;;5037062;28;20037;-36
2022/12/21 04:58:13;;;;;;;123.07;38.38;;;7.90;99.90;;;;;;5036504;28;20505;-36
2022/12/21 05:00:39;;;;;;;122.78;38.78;;;7.90;99.90;;;;;;5034374;28;20036;-36
2022/12/21 05:03:05;;;;;;;127.97;37.13;;;7.90;99.90;;;;;;5016874;28;20581;-36
2022/12/21 05:05:31;;;;;;;148.43;38.03;;;7.90;99.90;;;;;;5017005;28;20043;-36
2022/12/21 05:07:57;;;;;;;125.10;36.90;;;7.90;99.90;;;;;;5016647;28;20038;-36
2022/12/21 05:10:23;;;;;;;144.48;39.15;;;7.90;99.90;;;;;;5016509;28;20065;-36
2022/12/21 05:12:48;;;;;;;127.70;39.38;;;7.80;99.90;;;;;;5020435;28;20115;-39
2022/12/21 05:15:16;;;;;;;114.70;37.72;;;7.80;99.90;;;;;;5036116;28;20281;-39
2022/12/21 05:17:43;;;;;;;108.90;35.90;;;7.90;99.90;;;;;;5030830;28;20413;-39
2022/12/21 05:20:09;;;;;;;133.32;37.60;;;7.90;99.90;;;;;;5044482;28;20052;-39
2022/12/21 05:22:35;;;;;;;116.10;36.15;;;7.90;99.90;;;;;;5037643;28;20040;-39
2022/12/21 05:25:01;;;;;;;102.72;33.53;;;7.80;99.90;;;;;;5035131;28;20115;-39
2022/12/21 05:27:27;;;;;;;117.78;35.45;;;7.90;99.90;;;;;;5032288;28;20025;-39
2022/12/21 05:29:52;;;;;;;107.40;35.00;;;7.90;99.90;;;;;;5032266;28;20562;-39
2022/12/21 05:32:18;;;;;;;96.53;33.35;;;7.90;99.90;;;;;;5034219;28;20037;-39
2022/12/21 05:34:44;;;;;;;111.20;34.10;;;7.90;99.90;;;;;;5044438;28;20120;-39
2022/12/21 05:37:10;;;;;;;107.68;33.67;;;7.90;99.90;;;;;;5031121;28;20516;-40
2022/12/21 05:39:35;;;;;;;96.45;33.60;;;7.90;99.90;;;;;;5016081;28;20068;-39
2022/12/21 05:42:02;;;;;;;110.15;34.17;;;7.90;99.90;;;;;;5042707;28;20044;-39
2022/12/21 05:44:29;;;;;;;111.63;33.42;;;7.90;99.90;;;;;;5055689;28;20051;-39
2022/12/21 05:46:54;;;;;;;118.72;34.47;;;7.90;99.90;;;;;;5039122;28;20127;-39
2022/12/21 05:49:21;;;;;;;98.10;33.33;;;7.90;99.90;;;;;;5030205;28;20033;-39
2022/12/21 05:51:50;;;;;;;125.03;36.67;;;7.90;99.90;;;;;;5042027;28;20043;-39
2022/12/21 05:54:16;;;;;;;121.70;34.30;;;7.90;99.90;;;;;;5038193;28;20043;-39
2022/12/21 05:56:42;;;;;;;146.98;37.22;;;7.90;99.90;;;;;;5042626;28;20033;-39
2022/12/21 05:59:08;;;;;;;192.85;41.00;;;7.90;99.90;;;;;;5034496;28;20103;-42
2022/12/21 06:01:34;;;;;;;213.57;44.25;;;7.90;99.90;;;;;;5026107;28;20140;-40
2022/12/21 06:04:00;;;;;;;133.35;36.08;;;7.90;99.90;;;;;;5017735;28;20145;-45
2022/12/21 06:06:26;;;;;;;145.15;38.38;;;7.90;99.90;;;;;;5035653;28;20137;-40
2022/12/21 06:08:52;;;;;;;175.93;39.13;;;7.90;99.90;;;;;;5035910;28;20041;-38
2022/12/21 06:11:20;;;;;;;143.27;36.00;;;7.90;99.90;;;;;;5034456;28;20080;-38
2022/12/21 06:13:47;;;;;;;211.30;45.10;;;7.90;99.90;;;;;;5031855;28;20048;-38
2022/12/21 06:16:18;;;;;;;220.85;44.53;;;7.90;99.90;;;;;;5036739;28;20124;-38
2022/12/21 06:18:45;;;;;;;176.65;41.85;;;7.80;99.90;;;;;;5034079;28;20037;-38
2022/12/21 06:21:12;;;;;;;179.32;45.53;;;7.80;99.90;;;;;;5018161;28;20088;-38
2022/12/21 06:23:39;;;;;;;148.88;41.30;;;7.90;99.90;;;;;;5035831;28;20037;-38
2022/12/21 06:26:13;;;;;;;157.13;43.67;;;7.90;99.90;;;;;;5052102;28;20044;-38
2022/12/21 06:28:39;;;;;;;226.75;50.40;;;7.90;99.90;;;;;;5056787;28;20084;-37
2022/12/21 06:31:10;;;;;;;180.77;42.25;;;7.80;99.90;;;;;;5059898;28;20036;-37
2022/12/21 06:33:36;;;;;;;135.55;37.47;;;7.80;99.90;;;;;;5028363;28;20402;-36
2022/12/21 06:36:04;;;;;;;129.25;38.30;;;7.80;99.90;;;;;;5038766;28;20048;-37
2022/12/21 06:38:30;;;;;;;144.40;41.90;;;7.80;99.90;;;;;;5047527;28;20048;-37
2022/12/21 06:41:06;;;;;;;150.00;42.72;;;7.80;99.90;;;;;;5027752;28;20115;-37
2022/12/21 06:43:34;;;;;;;143.00;40.83;;;7.80;99.90;;;;;;5045320;28;20079;-37
2022/12/21 06:46:02;;;;;;;124.15;37.40;;;7.80;99.90;;;;;;5025356;28;20120;-37
2022/12/21 06:48:30;;;;;;;140.30;42.50;;;7.80;99.90;;;;;;5050281;28;20390;-37
2022/12/21 06:53:53;;;;;;;134.50;40.60;;;7.80;99.90;;;;;;5536290;23;20116;-89
2022/12/21 06:56:41;;;;;;;136.02;39.75;;;7.80;99.90;;;;;;5000042;28;20108;-90
2022/12/21 06:59:07;;;;;;;132.40;38.67;;;7.90;99.90;;;;;;4989226;28;20042;-88
2022/12/21 07:01:34;;;;;;;149.50;42.25;;;7.80;99.90;;;;;;4992646;28;20465;-90
2022/12/21 07:04:00;;;;;;;121.50;40.20;;;7.90;99.90;;;;;;4953034;28;20124;-88
2022/12/21 07:06:28;;;;;;;144.73;41.50;;;7.70;99.90;;;;;;4956268;28;20123;-90
2022/12/21 07:08:55;;;;;;;145.35;43.08;;;7.80;99.90;;;;;;4974532;28;20119;-89
2022/12/21 07:11:24;;;;;;;133.13;42.60;;;7.80;99.90;;;;;;4962123;28;20597;-88
2022/12/21 07:13:52;;;;;;;167.57;45.08;;;7.80;99.90;;;;;;4959434;28;20080;-89
2022/12/21 07:16:18;;;;;;;135.93;40.30;;;7.80;99.90;;;;;;4940407;28;20039;-88
2022/12/21 07:18:44;;;;;;;146.32;43.35;;;7.80;99.90;;;;;;4963877;28;20038;-88
2022/12/21 07:21:18;;;;;;;165.57;44.80;;;7.80;99.90;;;;;;4974895;28;20043;-89
2022/12/21 07:23:44;;;;;;;167.05;43.72;;;7.80;99.90;;;;;;4955131;28;20404;-89
2022/12/21 07:26:31;;;;;;;178.25;44.90;;;7.80;99.90;;;;;;4968621;28;20097;-89
2022/12/21 07:28:57;;;;;;;147.52;44.63;;;7.80;99.90;;;;;;5003747;28;20041;-88
2022/12/21 07:31:25;;;;;;;155.20;45.10;;;7.80;99.90;;;;;;4991224;28;20042;-88
2022/12/21 07:33:51;;;;;;;175.25;48.53;;;7.70;99.90;;;;;;4975259;28;20050;-88
2022/12/21 07:41:09;;;;;;;150.80;44.88;;;7.80;99.90;;;;;;4936053;29;20091;-91
2022/12/21 07:43:53;;;;;;;148.73;41.28;;;7.80;99.90;;;;;;4955659;28;20100;-88
2022/12/21 07:46:38;;;;;;;181.15;47.95;;;7.80;99.90;;;;;;4973742;28;20473;-88
2022/12/21 07:49:04;;;;;;;152.38;44.67;;;7.70;99.90;;;;;;4979410;28;20070;-90
2022/12/21 07:51:29;;;;;;;132.25;43.92;;;7.80;99.90;;;;;;4972050;28;20046;-90
2022/12/21 07:53:55;;;;;;;150.27;45.40;;;7.80;99.90;;;;;;4959857;28;20035;-89
2022/12/21 07:56:20;;;;;;;161.73;45.25;;;7.70;99.90;;;;;;4960149;28;20031;-89
2022/12/21 07:58:46;;;;;;;152.98;46.28;;;7.70;99.90;;;;;;4960453;28;20129;-90
2022/12/21 08:01:16;;;;;;;159.45;43.13;;;7.80;99.90;;;;;;4959810;28;20038;-89
2022/12/21 08:03:44;;;;;;;134.13;44.30;;;7.70;99.90;;;;;;4963372;28;20049;-89
2022/12/21 08:06:11;;;;;;;144.68;44.55;;;7.80;99.90;;;;;;4960496;28;20039;-90
2022/12/21 08:08:38;;;;;;;148.30;45.28;;;7.80;99.90;;;;;;4963551;28;20073;-90
2022/12/21 08:11:09;;;;;;;129.77;43.65;;;7.70;99.90;;;;;;4960230;28;20049;-89
2022/12/21 08:13:35;;;;;;;155.15;45.20;;;7.80;99.90;;;;;;4976406;28;20137;-89
2022/12/21 08:16:05;;;;;;;135.85;44.40;;;7.80;99.90;;;;;;4978944;28;20088;-90
2022/12/21 08:18:32;;;;;;;144.48;44.15;;;7.80;99.90;;;;;;4964312;28;20138;-90
2022/12/21 08:20:58;;;;;;;146.93;42.97;;;7.80;99.90;;;;;;4962982;28;20069;-90
2022/12/21 08:23:24;;;;;;;140.18;44.40;;;7.70;99.90;;;;;;4969478;28;20043;-90
2022/12/21 08:25:51;;;;;;;134.13;42.53;;;7.70;99.90;;;;;;4974904;28;20089;-90
2022/12/21 08:28:16;;;;;;;125.15;41.70;;;7.80;99.90;;;;;;4956484;28;20441;-90
2022/12/21 08:30:43;;;;;;;147.68;43.30;;;7.80;99.90;;;;;;4993253;28;20044;-91
2022/12/21 08:33:09;;;;;;;147.93;44.90;;;7.80;99.90;;;;;;4963295;28;20039;-90
2022/12/21 08:35:36;;;;;;;143.90;43.28;;;7.60;99.90;;;;;;4963297;28;20042;-91
2022/12/21 08:38:01;;;;;;;143.30;43.13;;;7.80;99.90;;;;;;4964241;28;20054;-93
2022/12/21 08:40:27;;;;;;;160.50;44.85;;;7.70;99.90;;;;;;4963835;28;20379;-91
2022/12/21 08:42:53;;;;;;;146.70;43.63;;;7.70;99.90;;;;;;4964503;28;20053;-91
2022/12/21 08:45:19;;;;;;;145.50;44.22;;;7.70;99.90;;;;;;4961982;28;20043;-94
2022/12/21 08:47:47;;;;;;;148.13;42.75;;;7.70;99.90;;;;;;4965453;28;20038;-92
2022/12/21 08:50:14;;;;;;;159.68;41.95;;;7.70;99.90;;;;;;4963957;28;20069;-92
2022/12/21 08:52:39;;;;;;;182.55;47.45;;;7.70;99.90;;;;;;4963585;28;20038;-92
2022/12/21 08:55:05;;;;;;;161.02;43.13;;;7.70;99.90;;;;;;4962728;28;20116;-92
2022/12/21 08:57:31;;;;;;;148.88;41.83;;;7.60;99.90;;;;;;4963332;28;20125;-91
2022/12/21 08:59:57;;;;;;;163.98;43.03;;;7.60;99.90;;;;;;4963667;28;20093;-91
2022/12/21 09:02:22;;;;;;;152.30;43.00;;;7.60;99.90;;;;;;4964177;28;20038;-92
2022/12/21 09:04:48;;;;;;;149.43;42.30;;;7.60;99.90;;;;;;4963553;28;20046;-92
2022/12/21 09:07:14;;;;;;;131.52;38.28;;;7.60;99.90;;;;;;4964044;28;20073;-93
2022/12/21 09:09:44;;;;;;;143.52;41.17;;;7.60;99.90;;;;;;4963099;28;20503;-90
2022/12/21 09:12:10;;;;;;;121.07;39.15;;;7.60;99.90;;;;;;4963016;28;20088;-91
2022/12/21 09:14:35;;;;;;;125.82;39.80;;;7.60;99.90;;;;;;4963497;28;20057;-91
2022/12/21 09:17:01;;;;;;;128.30;42.05;;;7.60;99.90;;;;;;4959628;28;20042;-86
2022/12/21 09:19:27;;;;;;;115.45;40.78;;;7.60;99.90;;;;;;4971914;28;20053;-90
2022/12/21 09:21:53;;;;;;;101.13;34.30;;;7.60;99.90;;;;;;4964550;28;20656;-90
2022/12/21 09:24:19;;;;;;;109.57;37.30;;;7.60;99.90;;;;;;4961087;28;20034;-90
2022/12/21 09:26:44;;;;;;;107.80;40.35;;;7.60;99.90;;;;;;4961583;28;20038;-90
2022/12/21 09:29:10;;;;;;;111.97;38.78;;;7.70;99.90;;;;;;4977766;28;20119;-90
2022/12/21 09:31:36;;;;;;;94.55;35.72;;;7.70;99.90;;;;;;4961676;28;20038;-91
2022/12/21 09:34:01;;;;;;;96.85;34.22;;;7.70;99.90;;;;;;4977454;28;20050;-91
2022/12/21 09:36:27;;;;;;;95.63;32.65;;;7.60;99.90;;;;;;4961647;28;20073;-91
2022/12/21 09:38:54;;;;;;;103.85;33.53;;;7.70;99.90;;;;;;4961267;28;20109;-91
2022/12/21 09:41:28;;;;;;;96.00;34.55;;;7.70;99.90;;;;;;4961115;28;20034;-91
2022/12/21 09:44:13;;;;;;;95.50;33.60;;;7.80;99.90;;;;;;4977737;28;20046;-91
2022/12/21 09:46:42;;;;;;;90.03;33.67;;;7.80;99.90;;;;;;4961589;28;20093;-91
2022/12/21 09:49:22;;;;;;;86.28;32.85;;;7.80;99.90;;;;;;4961570;28;20034;-90
2022/12/21 09:51:57;;;;;;;98.53;36.15;;;8.00;99.90;;;;;;4961701;28;20045;-91
2022/12/21 09:54:42;;;;;;;93.45;34.83;;;7.90;99.90;;;;;;4951278;28;20100;-90
2022/12/21 09:57:12;;;;;;;81.13;31.83;;;8.00;99.90;;;;;;4961806;28;20038;-91
2022/12/21 09:59:38;;;;;;;80.78;31.98;;;8.10;99.90;;;;;;4961792;28;20048;-90
2022/12/21 10:02:22;;;;;;;85.28;31.40;;;8.10;99.90;;;;;;4961152;28;20042;-90
2022/12/21 10:05:06;;;;;;;81.63;31.60;;;8.00;99.90;;;;;;4977103;28;20046;-90
2022/12/21 10:07:52;;;;;;;89.22;32.22;;;8.10;99.90;;;;;;4961028;28;20133;-91
2022/12/21 10:10:38;;;;;;;71.45;29.52;;;8.00;99.90;;;;;;4961628;28;20049;-90
2022/12/21 10:13:11;;;;;;;77.30;29.38;;;8.00;99.90;;;;;;4977252;28;20042;-90
2022/12/21 10:16:08;;;;;;;76.72;30.55;;;8.00;99.90;;;;;;4972179;28;20089;-90
2022/12/21 10:18:47;;;;;;;84.72;31.77;;;8.00;99.90;;;;;;4960681;28;20058;-90
2022/12/21 10:21:32;;;;;;;85.57;32.47;;;8.00;99.90;;;;;;4958391;28;20035;-90
2022/12/21 10:24:02;;;;;;;74.20;28.65;;;8.10;99.90;;;;;;4977455;28;20042;-91
2022/12/21 10:26:32;;;;;;;79.80;29.33;;;8.10;99.90;;;;;;4954555;28;20062;-90
2022/12/21 10:29:09;;;;;;;79.18;29.95;;;8.10;99.90;;;;;;4962967;28;20041;-91
2022/12/21 10:31:46;;;;;;;83.20;30.40;;;8.20;99.90;;;;;;4992755;28;20038;-91
2022/12/21 10:34:33;;;;;;;82.50;32.22;;;8.30;99.90;;;;;;4962356;28;20097;-91
2022/12/21 10:37:12;;;;;;;73.22;28.60;;;8.40;99.90;;;;;;4966032;28;20054;-91
2022/12/21 10:39:37;;;;;;;68.22;27.73;;;8.50;99.90;;;;;;4950273;28;20114;-92
2022/12/21 10:42:25;;;;;;;75.03;28.55;;;8.50;99.90;;;;;;4961659;28;20058;-92
2022/12/21 10:44:52;;;;;;;64.53;25.90;;;8.60;99.90;;;;;;4968774;28;20042;-91
2022/12/21 10:47:21;;;;;;;61.60;26.05;;;8.60;99.90;;;;;;4962339;28;20123;-92
2022/12/21 10:50:01;;;;;;;69.05;27.88;;;8.60;99.90;;;;;;4957094;28;20043;-92
2022/12/21 10:52:45;;;;;;;71.35;28.98;;;8.70;99.90;;;;;;4987314;28;20555;-91
2022/12/21 10:55:17;;;;;;;61.95;26.02;;;8.70;99.90;;;;;;4969717;28;20104;-92
2022/12/21 10:57:46;;;;;;;63.38;28.27;;;8.70;99.90;;;;;;4978817;28;20054;-92
2022/12/21 11:00:33;;;;;;;60.78;27.05;;;8.60;99.90;;;;;;4941308;28;20043;-91
2022/12/21 11:03:01;;;;;;;68.40;27.98;;;8.50;99.90;;;;;;4983045;28;20042;-92
2022/12/21 11:05:32;;;;;;;65.57;27.58;;;8.70;99.90;;;;;;4976234;28;20043;-92
2022/12/21 11:08:12;;;;;;;60.10;25.23;;;8.70;99.90;;;;;;4975263;28;20046;-92
2022/12/21 11:10:40;;;;;;;57.50;26.48;;;9.20;99.90;;;;;;4971767;28;20045;-92
2022/12/21 11:13:06;;;;;;;67.05;27.30;;;9.40;99.90;;;;;;4960333;28;20038;-91
2022/12/21 11:15:33;;;;;;;52.85;24.80;;;9.30;99.90;;;;;;4960467;28;20046;-90
2022/12/21 11:17:59;;;;;;;57.78;25.17;;;9.30;99.90;;;;;;4973226;28;20037;-90
2022/12/21 11:20:26;;;;;;;59.97;26.15;;;9.30;99.90;;;;;;4969320;28;20033;-90
2022/12/21 11:22:55;;;;;;;58.45;26.30;;;9.20;99.90;;;;;;4964390;28;20045;-90
2022/12/21 11:25:24;;;;;;;54.83;25.77;;;9.20;99.90;;;;;;4957251;28;20413;-90
2022/12/21 11:27:57;;;;;;;63.05;26.95;;;9.30;99.90;;;;;;4956512;28;20137;-90
2022/12/21 11:30:31;;;;;;;57.60;27.38;;;9.50;99.90;;;;;;4955324;28;20162;-90
2022/12/21 11:32:58;;;;;;;60.13;27.92;;;9.70;99.90;;;;;;4975990;28;20046;-90
2022/12/21 11:35:34;;;;;;;66.47;30.40;;;10.10;99.90;;;;;;4946624;28;20408;-91
2022/12/21 11:38:13;;;;;;;60.05;27.10;;;10.30;99.90;;;;;;4993472;28;20095;-91
2022/12/21 11:40:54;;;;;;;58.80;26.67;;;10.40;99.90;;;;;;4979234;28;20042;-91
2022/12/21 11:43:20;;;;;;;59.38;27.17;;;10.50;99.90;;;;;;4963328;28;20413;-91
2022/12/21 11:46:16;;;;;;;63.03;29.17;;;10.50;99.90;;;;;;4993848;28;20049;-90
2022/12/21 11:48:58;;;;;;;56.75;29.52;;;10.60;99.90;;;;;;4975505;28;20053;-90
2022/12/21 11:51:41;;;;;;;67.45;30.98;;;10.50;99.90;;;;;;4989404;28;20041;-90
2022/12/21 11:54:35;;;;;;;55.90;28.15;;;10.80;99.90;;;;;;4972325;28;20096;-90
2022/12/21 11:57:06;;;;;;;61.53;28.33;;;10.90;99.90;;;;;;4980708;28;20043;-92
2022/12/21 11:59:56;;;;;;;64.47;30.55;;;11.10;99.90;;;;;;4979345;28;20296;-91
2022/12/21 12:02:50;;;;;;;60.45;28.73;;;11.10;99.90;;;;;;4972753;28;20074;-90
2022/12/21 12:05:21;;;;;;;55.30;27.65;;;11.30;99.90;;;;;;4966178;28;20034;-89
2022/12/21 12:08:03;;;;;;;51.35;27.27;;;11.60;99.90;;;;;;4958568;28;20046;-89
2022/12/21 12:11:18;;;;;;;52.28;26.38;;;11.40;99.90;;;;;;4956747;28;20127;-89
2022/12/21 12:14:02;;;;;;;55.05;27.73;;;11.20;99.90;;;;;;4949289;28;20097;-90
2022/12/21 12:16:57;;;;;;;45.50;24.63;;;11.00;99.90;;;;;;4988887;28;20101;-90
2022/12/21 12:19:45;;;;;;;53.50;25.52;;;10.60;99.90;;;;;;4974491;28;20039;-91
2022/12/21 12:22:32;;;;;;;48.13;24.80;;;10.30;99.90;;;;;;4971374;28;20113;-89
2022/12/21 12:25:23;;;;;;;53.88;26.48;;;10.00;99.90;;;;;;4975488;28;20066;-90
2022/12/21 12:27:52;;;;;;;58.08;28.15;;;9.90;99.90;;;;;;4967719;28;20047;-90
2022/12/21 12:30:24;;;;;;;52.15;26.38;;;10.00;99.90;;;;;;4968599;28;20481;-90
2022/12/21 12:33:49;;;;;;;57.40;27.02;;;10.00;99.90;;;;;;4985458;28;20046;-89
2022/12/21 12:37:00;;;;;;;52.40;27.20;;;10.00;99.90;;;;;;4956044;28;20110;-90
2022/12/21 12:40:00;;;;;;;;;;;;;;;;;;;;;
2022/12/21 12:47:11;;;;;;;54.72;28.17;;;10.20;99.90;;;;;;4998459;28;20065;-90
2022/12/21 12:53:43;;;;;;;51.65;27.23;;;9.90;99.90;;;;;;4969348;23;20061;-38
2022/12/21 12:56:23;;;;;;;50.40;26.30;;;9.90;99.90;;;;;;5011683;28;20037;-39
2022/12/21 12:59:20;;;;;;;50.90;25.75;;;9.90;99.90;;;;;;5007125;28;20307;-38
2022/12/21 13:02:13;;;;;;;44.28;25.73;;;9.90;99.90;;;;;;4986835;28;20068;-39
2022/12/21 13:04:50;;;;;;;39.15;23.95;;;9.90;99.90;;;;;;4990404;28;20045;-38
2022/12/21 13:07:31;;;;;;;43.33;25.35;;;9.90;99.90;;;;;;4992253;28;20041;-39
2022/12/21 13:10:31;;;;;;;43.13;24.35;;;9.80;99.90;;;;;;4988022;28;20035;-39
2022/12/21 13:13:17;;;;;;;41.55;25.02;;;9.80;99.90;;;;;;4974112;28;20133;-39
2022/12/21 13:15:55;;;;;;;51.33;26.55;;;9.80;99.90;;;;;;4989147;28;20223;-38
2022/12/21 13:18:25;;;;;;;47.42;26.60;;;9.80;99.90;;;;;;4988785;28;20384;-39
2022/12/21 13:20:55;;;;;;;48.05;27.63;;;9.80;99.90;;;;;;4992840;28;20056;-39
2022/12/21 13:23:36;;;;;;;48.00;27.08;;;9.90;99.90;;;;;;4986921;28;20049;-39
2022/12/21 13:26:21;;;;;;;48.95;26.50;;;9.80;99.90;;;;;;4987639;28;20053;-38